FLUGWETTER MÜNCHEN AIRPORT

[source: ADDS]
METAR
EDDM 262220Z AUTO 23001KT //// R08L/0500VP2000U R08R/P2000N ///////// 08/08 Q1022 NOSIG =
TAF
TAF EDDM 261700Z 2618/2724 VRB03KT CAVOK BECMG 2622/2624 3500 BCFG TEMPO 2701/2707 0300 FG VV001 BECMG 2707/2708 9999 BECMG 2722/2724 2500 BCFG =
SR / SS: 05:09 / 17:00 UTC (Tag 2016-09-27)

QR-Code dieser Seite

QR-Code dieser Seite